Aérodrome :
LOGIN :

S'inscrire | Disclaimer

   EN    FR    IT 

 










Légende :    VFR   VFR Marginal   IFR   IFR Intensif   IFR Très Intensif
Visi : 
Plafond : 
>= 8 km
>= 3000ft
5 à 8 km
1000 à 3000 ft
1500m à 5 km
500 à 1000 ft
800 à 1500m
200 à 500 ft
< 800m
< 200 ft
Symboles :   Orages  Brouillard  Fortes neiges  Fortes précipitations  Vent > 20 kt
SIGMETs :   Divers  Orages  Givrage  Turbulence  Onde Orograph.  Cendres Volcan.







- Altitude de l'aérodrome : 529 ft
- Code IATA : CHR
- Voir les cartes d'approche


LFLX - Chateauroux

DERNIER METAR :
  • 131930Z AUTO 06002KT 6000 NSC M03/M04 Q1012 NOSIG

METARs EXPIRÉS :
  • 131900Z AUTO 07004KT 6000 NSC M02/M03 Q1011 NOSIG
  • 131830Z AUTO 07004KT 6000 NSC M02/M03 Q1011 NOSIG
  • 131800Z AUTO 07004KT 6000 NSC M02/M03 Q1011 NOSIG
  • 131730Z AUTO 08004KT 6000 NSC M02/M03 Q1010 NOSIG
  • 131700Z AUTO 08005KT 6000 NSC M01/M03 Q1010 NOSIG
  • 131630Z AUTO 07006KT 7000 NSC M01/M02 Q1010 NOSIG

TAF TAF LFLX
Valide du 13 à 18h jusqu'au 15 à 00h UTC


131700Z 1318/1424 08008KT 6000 BKN012
BECMG 1318/1320 CAVOK
TEMPO 1403/1412 BKN009
PROB30
TEMPO 1405/1409 0800 BCFG BKN002
TEMPO 1412/1424 SCT014
Pas de NOTAMs connus pour ce terrain.



MET'MAP, la Météo Aéronautique d'un coup d'oeil ! - Copyright ORBIFLY Décembre 2007 - Disclaimer

ORBIFLY MET'MAP TEAM :

Programmation & Développement : Alexandra Zaïnal
Conception & Développement : Baudouin d'Aumeries
Co-Programmation & Développement : Marc-Olivier Méhu
Soutien technique & logistique : Manuel Goepfert

Contact : metmap@orbifly.com




SOURCES & CREDITS :

   NOAA